This is the latest recevied weather packets stored in our database for station/object K1TTC. If no packets are shown the sender has not sent any weather packets the latest 1 day(s).
| Time | Temp. | Humidity | Pressure | Rain* | Wind** | Luminosity | Snow |
|---|---|---|---|---|---|---|---|
| 1778010805 | 28.89° C | 28% | 1006.6 hPa | 0 mm | 5.36 m/s, 199° | 580 W/m² | - |
| 1778010206 | 28.89° C | 27% | 1006.5 hPa | 0 mm | 4.92 m/s, 214° | 629 W/m² | - |
| 1778009605 | 28.89° C | 28% | 1006.5 hPa | 0 mm | 4.47 m/s, 198° | 682 W/m² | - |
| 1778009002 | 28.89° C | 27% | 1006.7 hPa | 0 mm | 4.47 m/s, 201° | 700 W/m² | - |
| 1778008402 | 28.89° C | 29% | 1006.8 hPa | 0 mm | 3.58 m/s, 234° | 737 W/m² | - |
| 1778007806 | 28.33° C | 32% | 1007 hPa | 0 mm | 4.02 m/s, 168° | 227 W/m² | - |
| 1778007200 | 28.33° C | 31% | 1007.1 hPa | 0 mm | 4.47 m/s, 215° | 819 W/m² | - |
| 1778006600 | 28.89° C | 30% | 1007.3 hPa | 0 mm | 4.47 m/s, 181° | 916 W/m² | - |
| 1778006000 | 28.33° C | 29% | 1007.4 hPa | 0 mm | 5.36 m/s, 214° | 861 W/m² | - |
| 1778005437 | 28.33° C | 28% | 1007.5 hPa | 0 mm | 4.92 m/s, 152° | 183 W/m² | - |
| 1778004800 | 28.33° C | 30% | 1008 hPa | 0 mm | 4.47 m/s, 179° | 856 W/m² | - |
| 1778004202 | 28.33° C | 30% | 1008 hPa | 0 mm | 4.47 m/s, 174° | 823 W/m² | - |
| 1778003600 | 28.33° C | 30% | 1008 hPa | 0 mm | 4.02 m/s, 189° | 847 W/m² | - |
| 1778003000 | 28.33° C | 32% | 1008.2 hPa | 0 mm | 3.58 m/s, 238° | 858 W/m² | - |
| 1778002410 | 27.78° C | 31% | 1008.4 hPa | 0 mm | 4.92 m/s, 165° | 870 W/m² | - |
| 1778001800 | 27.78° C | 33% | 1008.5 hPa | 0 mm | 3.13 m/s, 219° | 889 W/m² | - |
| 1778001214 | 27.78° C | 33% | 1008.6 hPa | 0 mm | 4.02 m/s, 167° | 896 W/m² | - |
| 1778000600 | 27.78° C | 33% | 1008.8 hPa | 0 mm | 3.13 m/s, 209° | 904 W/m² | - |
| 1778000000 | 27.22° C | 34% | 1009 hPa | 0 mm | 2.68 m/s, 186° | 904 W/m² | - |
| 1777999400 | 26.67° C | 35% | 1009.1 hPa | 0 mm | 3.58 m/s, 135° | 889 W/m² | - |
| 1777998922 | 26.67° C | 36% | 1009.3 hPa | 0 mm | 2.68 m/s, 251° | 893 W/m² | - |
| 1777998199 | 26.11° C | 36% | 1009.5 hPa | 0 mm | 3.13 m/s, 150° | 893 W/m² | - |
| 1777997717 | 26.11° C | 37% | 1009.8 hPa | 0 mm | 2.68 m/s, 202° | 881 W/m² | - |
| 1777996996 | 25.56° C | 40% | 1010 hPa | 0 mm | 2.24 m/s, 233° | 932 W/m² | - |
| 1777996514 | 24.44° C | 39% | 1010.3 hPa | 0 mm | 2.68 m/s, 209° | 977 W/m² | - |
* Rain latest hour (hover to see other rain measurements)
** Current wind speed in m/s (hover to see current wind gust speed)